createdAt,value
2022-08-09T00:01:43.097Z,87.40
2022-08-09T00:04:34.655Z,87.26
2022-08-09T00:07:07.715Z,86.64
2022-08-09T00:09:46.279Z,86.87
2022-08-09T00:12:22.837Z,86.44
2022-08-09T00:14:56.684Z,86.50
2022-08-09T00:18:05.381Z,86.95
2022-08-09T00:20:12.941Z,86.81
2022-08-09T00:22:42.400Z,86.55
2022-08-09T00:25:12.804Z,86.71
2022-08-09T00:27:43.048Z,86.64
2022-08-09T00:30:24.928Z,86.81
2022-08-09T00:32:53.211Z,87.07
2022-08-09T00:35:24.079Z,87.26
2022-08-09T00:37:55.984Z,87.37
2022-08-09T00:40:23.230Z,87.49
2022-08-09T00:44:15.001Z,87.58
2022-08-09T00:45:50.455Z,87.86
2022-08-09T00:48:22.026Z,87.68
2022-08-09T00:50:52.307Z,87.74
2022-08-09T00:53:24.100Z,87.87
2022-08-09T00:56:04.969Z,87.85
2022-08-09T00:58:36.707Z,87.75
2022-08-09T01:01:16.151Z,87.94
2022-08-09T01:04:08.690Z,87.73
2022-08-09T01:06:54.843Z,87.74
2022-08-09T01:09:47.514Z,87.94
2022-08-09T01:12:35.238Z,87.77
2022-08-09T01:15:16.652Z,87.73
2022-08-09T01:17:52.003Z,87.52
2022-08-09T01:20:55.146Z,87.42
2022-08-09T01:24:02.902Z,87.22
2022-08-09T01:26:21.297Z,87.15
2022-08-09T01:28:53.955Z,87.18
2022-08-09T01:32:31.187Z,87.29
2022-08-09T01:34:20.862Z,87.49
2022-08-09T01:36:52.981Z,87.43
2022-08-09T01:39:23.207Z,87.67
2022-08-09T01:41:55.710Z,87.46
2022-08-09T01:44:33.603Z,87.38
2022-08-09T01:47:04.252Z,87.54
2022-08-09T01:49:39.262Z,87.40
2022-08-09T01:52:15.129Z,87.81
2022-08-09T01:54:53.973Z,87.83
2022-08-09T01:57:29.417Z,87.85
2022-08-09T02:00:34.312Z,87.99
2022-08-09T02:03:05.418Z,88.35
2022-08-09T02:05:53.694Z,88.44
2022-08-09T02:08:38.947Z,88.71
2022-08-09T02:11:17.335Z,88.96
2022-08-09T02:13:55.360Z,88.81
2022-08-09T02:16:53.008Z,88.84
2022-08-09T02:19:25.042Z,88.92
2022-08-09T02:22:36.130Z,88.84
2022-08-09T02:25:10.127Z,88.93
2022-08-09T02:27:57.700Z,88.82
2022-08-09T02:30:33.431Z,88.76
2022-08-09T02:33:02.669Z,88.26
2022-08-09T02:36:01.605Z,88.47
2022-08-09T02:38:32.373Z,88.78
2022-08-09T02:41:08.630Z,88.94
2022-08-09T02:43:42.416Z,88.94
2022-08-09T02:46:27.550Z,89.33
2022-08-09T02:48:59.129Z,88.96
2022-08-09T02:51:37.165Z,89.30
2022-08-09T02:54:14.012Z,89.30
2022-08-09T02:56:51.317Z,89.09
2022-08-09T02:59:26.464Z,89.12
2022-08-09T03:02:11.981Z,89.32
2022-08-09T03:04:41.859Z,89.06
2022-08-09T03:07:14.472Z,89.03
2022-08-09T03:09:56.573Z,88.95
2022-08-09T03:12:26.047Z,88.88
2022-08-09T03:14:55.110Z,89.06
2022-08-09T03:17:27.160Z,89.01
2022-08-09T03:20:05.072Z,88.90
2022-08-09T03:22:41.962Z,88.96
2022-08-09T03:25:21.961Z,88.92
2022-08-09T03:28:02.871Z,88.90
2022-08-09T03:30:34.214Z,88.87
2022-08-09T03:33:17.149Z,89.15
2022-08-09T03:36:13.757Z,89.38
2022-08-09T03:38:42.606Z,89.30
2022-08-09T03:41:16.555Z,88.99
2022-08-09T03:44:03.306Z,88.97
2022-08-09T03:46:34.582Z,89.38
2022-08-09T03:49:07.924Z,89.39
2022-08-09T03:51:58.554Z,89.32
2022-08-09T03:54:39.608Z,89.50
2022-08-09T03:57:20.210Z,89.35
2022-08-09T03:59:54.404Z,89.50
2022-08-09T04:02:28.479Z,89.32
2022-08-09T04:04:59.076Z,89.35
2022-08-09T04:07:33.816Z,89.33
2022-08-09T04:10:21.016Z,89.00
2022-08-09T04:13:00.721Z,89.00
2022-08-09T04:15:51.973Z,88.64
2022-08-09T04:18:21.885Z,88.60
2022-08-09T04:20:51.440Z,88.18
2022-08-09T04:23:24.346Z,88.09
2022-08-09T04:25:54.931Z,88.00
2022-08-09T04:28:33.569Z,87.67
2022-08-09T04:31:09.841Z,87.55
2022-08-09T04:33:52.689Z,87.83
2022-08-09T04:36:27.947Z,87.69
2022-08-09T04:39:00.631Z,87.73
2022-08-09T04:41:33.801Z,88.41
2022-08-09T04:44:12.400Z,89.25
2022-08-09T04:46:58.360Z,89.10
2022-08-09T04:49:52.539Z,89.42
2022-08-09T04:52:27.828Z,89.57
2022-08-09T04:55:01.806Z,89.61
2022-08-09T04:57:59.411Z,89.29
2022-08-09T05:00:20.156Z,89.04
2022-08-09T05:02:51.935Z,89.39
2022-08-09T05:05:32.074Z,90.04
2022-08-09T05:08:09.102Z,90.30
2022-08-09T05:10:36.626Z,90.85
2022-08-09T05:13:04.403Z,90.74
2022-08-09T05:15:42.704Z,90.66
2022-08-09T05:18:42.765Z,90.58
2022-08-09T05:21:03.090Z,90.68
2022-08-09T05:23:55.319Z,90.61
2022-08-09T05:26:33.868Z,90.85
2022-08-09T05:29:04.904Z,90.92
2022-08-09T05:31:44.455Z,90.92
2022-08-09T05:34:18.068Z,91.72
2022-08-09T05:36:59.066Z,91.68
2022-08-09T05:39:43.678Z,91.87
2022-08-09T05:42:20.864Z,91.88
2022-08-09T05:44:59.110Z,91.78
2022-08-09T05:47:36.604Z,91.74
2022-08-09T05:50:44.307Z,91.60
2022-08-09T05:53:33.387Z,91.45
2022-08-09T05:56:09.916Z,91.67
2022-08-09T05:58:44.237Z,91.36
2022-08-09T06:01:15.899Z,91.02
2022-08-09T06:03:58.076Z,90.83
2022-08-09T06:06:27.587Z,90.96
2022-08-09T06:09:03.024Z,90.62
2022-08-09T06:11:41.177Z,90.52
2022-08-09T06:14:24.881Z,90.27
2022-08-09T06:16:52.728Z,90.24
2022-08-09T06:19:22.313Z,90.58
2022-08-09T06:21:58.711Z,90.94
2022-08-09T06:24:29.052Z,90.86
2022-08-09T06:26:56.635Z,90.49
2022-08-09T06:29:24.851Z,90.35
2022-08-09T06:32:08.918Z,90.70
2022-08-09T06:34:39.055Z,91.26
2022-08-09T06:37:19.130Z,92.42
2022-08-09T06:40:00.099Z,95.25
2022-08-09T06:42:45.161Z,97.25
2022-08-09T06:46:06.431Z,99.79
2022-08-09T06:48:30.481Z,100.00
2022-08-09T06:50:59.751Z,100.00
2022-08-09T06:53:38.063Z,100.00
2022-08-09T06:56:07.940Z,100.00
2022-08-09T07:00:49.453Z,100.00
2022-08-09T07:01:35.691Z,99.94
2022-08-09T07:04:12.215Z,100.00
2022-08-09T07:06:53.407Z,100.00
2022-08-09T07:09:54.853Z,100.00
2022-08-09T07:12:22.109Z,100.00
2022-08-09T07:16:36.370Z,100.00
2022-08-09T07:18:01.918Z,100.00
2022-08-09T07:20:32.421Z,100.00
2022-08-09T07:23:00.050Z,100.00
2022-08-09T07:25:27.364Z,100.00
2022-08-09T07:27:56.774Z,100.00
2022-08-09T07:30:25.254Z,100.00
2022-08-09T07:32:54.746Z,100.00
2022-08-09T07:35:53.139Z,100.00
2022-08-09T07:38:31.071Z,100.00
2022-08-09T07:41:12.915Z,100.00
2022-08-09T07:46:29.377Z,100.00
2022-08-09T07:49:03.677Z,100.00
2022-08-09T07:52:05.814Z,100.00
2022-08-09T07:54:31.169Z,100.00
2022-08-09T07:56:59.865Z,100.00
2022-08-09T07:59:45.962Z,100.00
2022-08-09T08:02:21.275Z,100.00
2022-08-09T08:04:49.408Z,100.00
2022-08-09T08:08:42.837Z,100.00
2022-08-09T08:10:15.246Z,100.00
2022-08-09T08:12:56.567Z,100.00
2022-08-09T08:15:26.019Z,100.00
2022-08-09T08:17:58.225Z,100.00
2022-08-09T08:20:32.589Z,100.00
2022-08-09T08:23:16.830Z,100.00
2022-08-09T08:25:50.399Z,100.00
2022-08-09T08:28:32.146Z,100.00
2022-08-09T08:31:10.379Z,100.00
2022-08-09T08:33:53.699Z,100.00
2022-08-09T08:36:30.724Z,100.00
2022-08-09T08:38:59.820Z,100.00
2022-08-09T08:41:50.441Z,100.00
2022-08-09T08:44:23.150Z,100.00
2022-08-09T08:47:05.150Z,100.00
2022-08-09T08:49:47.901Z,100.00
2022-08-09T08:55:07.268Z,100.00
2022-08-09T08:57:35.934Z,100.00
2022-08-09T09:00:20.918Z,100.00
2022-08-09T09:03:08.146Z,100.00
2022-08-09T09:06:00.169Z,100.00
2022-08-09T09:08:30.320Z,100.00
2022-08-09T09:11:03.988Z,100.00
2022-08-09T09:13:54.897Z,100.00
2022-08-09T09:16:30.837Z,100.00
2022-08-09T09:19:41.495Z,100.00
2022-08-09T09:22:05.120Z,100.00
2022-08-09T09:26:02.013Z,100.00
2022-08-09T09:28:03.897Z,100.00
2022-08-09T09:30:41.360Z,100.00
2022-08-09T09:33:15.449Z,100.00
2022-08-09T09:36:11.740Z,100.00
2022-08-09T09:38:56.686Z,100.00
2022-08-09T09:41:26.179Z,100.00
2022-08-09T09:44:11.469Z,100.00
2022-08-09T09:46:51.472Z,100.00
2022-08-09T09:49:56.437Z,100.00
2022-08-09T09:52:33.368Z,100.00
2022-08-09T09:55:16.049Z,100.00
2022-08-09T09:58:17.106Z,100.00
2022-08-09T10:00:54.298Z,100.00
2022-08-09T10:03:44.834Z,100.00
2022-08-09T10:06:46.743Z,100.00
2022-08-09T10:09:22.357Z,100.00
2022-08-09T10:12:11.389Z,100.00
2022-08-09T10:14:48.846Z,100.00
2022-08-09T10:17:51.194Z,100.00
2022-08-09T10:20:26.890Z,100.00
2022-08-09T10:23:17.461Z,100.00
2022-08-09T10:26:07.839Z,100.00
2022-08-09T10:28:40.787Z,100.00
2022-08-09T10:34:10.918Z,100.00
2022-08-09T10:36:47.736Z,100.00
2022-08-09T10:39:19.616Z,100.00
2022-08-09T10:41:48.347Z,100.00
2022-08-09T10:44:23.148Z,100.00
2022-08-09T10:48:16.214Z,100.00
2022-08-09T10:51:04.254Z,100.00
2022-08-09T10:54:04.644Z,100.00
2022-08-09T10:56:40.132Z,100.00
2022-08-09T10:59:31.261Z,100.00
2022-08-09T11:03:15.745Z,100.00
2022-08-09T11:05:14.252Z,100.00
2022-08-09T11:07:58.293Z,100.00
2022-08-09T11:10:54.464Z,100.00
2022-08-09T11:13:49.891Z,100.00
2022-08-09T11:16:37.334Z,100.00
2022-08-09T11:19:07.950Z,100.00
2022-08-09T11:22:05.010Z,100.00
2022-08-09T11:24:56.403Z,100.00
2022-08-09T11:28:02.873Z,100.00
2022-08-09T11:30:33.810Z,100.00
2022-08-09T11:33:05.718Z,100.00
2022-08-09T11:35:49.502Z,100.00
2022-08-09T11:38:19.292Z,100.00
2022-08-09T11:40:54.884Z,100.00
2022-08-09T11:43:32.531Z,100.00
2022-08-09T11:46:01.976Z,100.00
2022-08-09T11:48:32.297Z,99.86
2022-08-09T11:53:00.750Z,99.89
2022-08-09T11:54:14.041Z,99.96
2022-08-09T11:56:48.064Z,99.81
2022-08-09T11:59:33.002Z,100.00
2022-08-09T12:02:17.661Z,100.00
2022-08-09T12:04:58.134Z,99.52
2022-08-09T12:07:41.054Z,99.14
2022-08-09T12:10:38.304Z,98.44
2022-08-09T12:14:07.017Z,98.33
2022-08-09T12:16:02.042Z,98.14
2022-08-09T12:18:33.901Z,97.88
2022-08-09T12:21:11.034Z,97.83
2022-08-09T12:24:06.737Z,98.58
2022-08-09T12:26:53.031Z,98.42
2022-08-09T12:29:58.592Z,97.54
2022-08-09T12:32:31.964Z,97.38
2022-08-09T12:35:04.684Z,96.60
2022-08-09T12:37:44.240Z,96.28
2022-08-09T12:40:23.277Z,96.35
2022-08-09T12:42:53.519Z,96.11
2022-08-09T12:45:33.387Z,96.62
2022-08-09T12:48:19.850Z,97.71
2022-08-09T12:50:52.171Z,98.40
2022-08-09T12:53:41.219Z,99.11
2022-08-09T12:56:39.258Z,99.98
2022-08-09T12:59:19.931Z,100.00
2022-08-09T13:02:05.108Z,100.00
2022-08-09T13:04:39.949Z,100.00
2022-08-09T13:07:19.714Z,100.00
2022-08-09T13:10:04.631Z,100.00
2022-08-09T13:13:10.258Z,100.00
2022-08-09T13:15:50.088Z,100.00
2022-08-09T13:18:18.656Z,100.00
2022-08-09T13:20:50.282Z,100.00
2022-08-09T13:24:16.270Z,100.00
2022-08-09T13:26:37.616Z,100.00
2022-08-09T13:29:08.730Z,100.00
2022-08-09T13:32:15.870Z,100.00
2022-08-09T13:34:42.051Z,100.00
2022-08-09T13:37:09.331Z,100.00
2022-08-09T13:41:55.513Z,100.00
2022-08-09T13:42:29.052Z,100.00
2022-08-09T13:44:58.607Z,100.00
2022-08-09T13:47:49.548Z,100.00
2022-08-09T13:50:29.970Z,100.00
2022-08-09T13:53:01.935Z,100.00
2022-08-09T13:55:31.048Z,100.00
2022-08-09T13:58:11.719Z,100.00
2022-08-09T14:00:50.427Z,100.00
2022-08-09T14:04:03.225Z,100.00
2022-08-09T14:06:26.637Z,100.00
2022-08-09T14:08:57.319Z,100.00
2022-08-09T14:11:27.974Z,100.00
2022-08-09T14:14:22.623Z,100.00
2022-08-09T14:16:44.961Z,100.00
2022-08-09T14:19:14.771Z,100.00
2022-08-09T14:21:48.227Z,100.00
2022-08-09T14:24:32.141Z,100.00
2022-08-09T14:27:01.333Z,100.00
2022-08-09T14:30:35.034Z,99.82
2022-08-09T14:32:19.998Z,99.11
2022-08-09T14:34:57.226Z,98.40
2022-08-09T14:37:28.584Z,98.12
2022-08-09T14:40:09.206Z,98.67
2022-08-09T14:42:41.194Z,99.98
2022-08-09T14:46:46.445Z,99.95
2022-08-09T14:48:04.910Z,99.46
2022-08-09T14:50:34.547Z,98.86
2022-08-09T14:53:06.378Z,98.61
2022-08-09T14:55:47.821Z,98.37
2022-08-09T14:58:22.490Z,98.00
2022-08-09T15:00:53.290Z,97.44
2022-08-09T15:03:25.769Z,97.36
2022-08-09T15:05:56.875Z,97.29
2022-08-09T15:08:30.492Z,96.84
2022-08-09T15:11:06.970Z,96.09
2022-08-09T15:13:56.388Z,96.06
2022-08-09T15:16:29.772Z,95.78
2022-08-09T15:18:59.677Z,96.47
2022-08-09T15:21:56.132Z,97.31
2022-08-09T15:24:23.306Z,97.98
2022-08-09T15:26:57.734Z,99.72
2022-08-09T15:30:58.280Z,100.00
2022-08-09T15:32:28.552Z,100.00
2022-08-09T15:35:18.519Z,100.00
2022-08-09T15:37:56.758Z,100.00
2022-08-09T15:40:43.879Z,100.00
2022-08-09T15:43:13.337Z,100.00
2022-08-09T15:46:07.528Z,100.00
2022-08-09T15:48:32.136Z,100.00
2022-08-09T15:51:00.478Z,100.00
2022-08-09T15:54:05.276Z,100.00
2022-08-09T15:56:29.147Z,100.00
2022-08-09T15:58:58.859Z,100.00
2022-08-09T16:01:31.558Z,100.00
2022-08-09T16:04:04.979Z,100.00
2022-08-09T16:06:39.508Z,100.00
2022-08-09T16:09:15.961Z,100.00
2022-08-09T16:11:49.335Z,100.00
2022-08-09T16:14:24.219Z,100.00
2022-08-09T16:16:59.761Z,100.00
2022-08-09T16:19:36.599Z,100.00
2022-08-09T16:22:16.418Z,100.00
2022-08-09T16:24:47.105Z,100.00
2022-08-09T16:27:24.407Z,100.00
2022-08-09T16:30:15.293Z,100.00
2022-08-09T16:33:15.693Z,100.00
2022-08-09T16:35:55.693Z,100.00
2022-08-09T16:38:34.532Z,100.00
2022-08-09T16:41:04.711Z,100.00
2022-08-09T16:43:40.479Z,100.00
2022-08-09T16:46:08.157Z,100.00
2022-08-09T16:48:52.097Z,100.00
2022-08-09T16:51:38.651Z,100.00
2022-08-09T16:54:25.976Z,100.00
2022-08-09T16:57:08.245Z,100.00
2022-08-09T16:59:50.384Z,100.00
2022-08-09T17:02:30.332Z,100.00
2022-08-09T17:05:03.635Z,100.00
2022-08-09T17:08:43.948Z,100.00
2022-08-09T17:10:22.216Z,100.00
2022-08-09T17:12:52.655Z,100.00
2022-08-09T17:15:59.309Z,100.00
2022-08-09T17:18:10.683Z,100.00
2022-08-09T17:20:46.678Z,100.00
2022-08-09T17:24:20.737Z,100.00
2022-08-09T17:26:29.410Z,100.00
2022-08-09T17:29:11.497Z,100.00
2022-08-09T17:31:54.658Z,100.00
2022-08-09T17:35:07.406Z,100.00
2022-08-09T17:37:19.758Z,100.00
2022-08-09T17:39:53.595Z,99.39
2022-08-09T17:42:41.119Z,98.98
2022-08-09T17:45:16.144Z,98.54
2022-08-09T17:48:02.776Z,98.50
2022-08-09T17:50:37.279Z,98.11
2022-08-09T17:53:21.779Z,97.80
2022-08-09T17:55:57.594Z,98.35
2022-08-09T17:58:30.942Z,98.08
2022-08-09T18:00:59.915Z,97.38
2022-08-09T18:03:30.438Z,97.46
2022-08-09T18:06:00.702Z,96.51
2022-08-09T18:08:28.392Z,96.06
2022-08-09T18:11:02.029Z,95.75
2022-08-09T18:13:39.732Z,94.96
2022-08-09T18:16:28.918Z,94.33
2022-08-09T18:19:04.069Z,94.37
2022-08-09T18:21:41.312Z,94.88
2022-08-09T18:24:14.427Z,94.85
2022-08-09T18:26:46.972Z,95.25
2022-08-09T18:30:38.913Z,94.72
2022-08-09T18:32:04.975Z,94.07
2022-08-09T18:34:35.427Z,93.96
2022-08-09T18:37:04.543Z,93.73
2022-08-09T18:39:45.961Z,93.67
2022-08-09T18:42:18.695Z,93.37
2022-08-09T18:44:48.561Z,93.06
2022-08-09T18:47:19.526Z,93.07
2022-08-09T18:49:52.154Z,92.81
2022-08-09T18:52:28.380Z,92.73
2022-08-09T18:55:13.508Z,92.41
2022-08-09T18:57:44.558Z,91.69
2022-08-09T19:00:16.814Z,91.26
2022-08-09T19:02:51.006Z,90.66
2022-08-09T19:05:41.329Z,90.30
2022-08-09T19:08:10.242Z,90.11
2022-08-09T19:10:39.939Z,89.80
2022-08-09T19:13:22.971Z,90.28
2022-08-09T19:15:58.870Z,91.73
2022-08-09T19:18:34.164Z,92.46
2022-08-09T19:21:10.452Z,92.90
2022-08-09T19:24:38.274Z,92.10
2022-08-09T19:26:31.242Z,92.01
2022-08-09T19:29:03.253Z,90.71
2022-08-09T19:31:45.532Z,89.86
2022-08-09T19:34:18.342Z,89.32
2022-08-09T19:36:58.252Z,88.84
2022-08-09T19:39:43.095Z,88.57
2022-08-09T19:42:19.399Z,88.27
2022-08-09T19:44:50.638Z,87.71
2022-08-09T19:47:27.071Z,87.41
2022-08-09T19:50:09.958Z,87.29
2022-08-09T19:52:49.431Z,86.91
2022-08-09T19:55:30.757Z,86.56
2022-08-09T19:58:15.923Z,86.53
2022-08-09T20:00:45.603Z,86.21
2022-08-09T20:04:26.236Z,86.40
2022-08-09T20:06:03.417Z,86.17
2022-08-09T20:08:35.277Z,85.96
2022-08-09T20:11:06.081Z,85.80
2022-08-09T20:13:36.797Z,85.47
2022-08-09T20:16:38.149Z,85.00
2022-08-09T20:19:42.021Z,85.02
2022-08-09T20:21:55.920Z,84.76
2022-08-09T20:24:29.467Z,84.39
2022-08-09T20:27:07.986Z,84.48
2022-08-09T20:29:39.738Z,84.14
2022-08-09T20:32:29.291Z,84.30
2022-08-09T20:34:57.073Z,84.05
2022-08-09T20:37:24.738Z,83.79
2022-08-09T20:40:17.717Z,83.69
2022-08-09T20:42:39.299Z,83.53
2022-08-09T20:48:03.166Z,83.30
2022-08-09T20:50:47.380Z,83.26
2022-08-09T20:53:34.948Z,83.29
2022-08-09T20:56:04.003Z,83.03
2022-08-09T20:58:33.291Z,82.85
2022-08-09T21:01:32.422Z,82.92
2022-08-09T21:04:07.922Z,82.78
2022-08-09T21:06:44.124Z,82.55
2022-08-09T21:09:13.798Z,82.37
2022-08-09T21:14:31.124Z,82.43
2022-08-09T21:17:01.971Z,82.49
2022-08-09T21:20:18.682Z,82.58
2022-08-09T21:22:46.942Z,82.43
2022-08-09T21:25:37.688Z,82.30
2022-08-09T21:28:07.277Z,82.29
2022-08-09T21:30:40.860Z,82.05
2022-08-09T21:33:09.039Z,82.04
2022-08-09T21:35:40.913Z,81.95
2022-08-09T21:38:21.043Z,82.13
2022-08-09T21:40:59.339Z,82.67
2022-08-09T21:43:56.130Z,83.12
2022-08-09T21:46:16.802Z,83.61
2022-08-09T21:48:49.194Z,83.61
2022-08-09T21:51:24.434Z,83.60
2022-08-09T21:54:03.765Z,83.66
2022-08-09T21:56:42.999Z,83.85
2022-08-09T21:59:12.059Z,83.89
2022-08-09T22:02:00.422Z,83.94
2022-08-09T22:04:56.804Z,83.94
2022-08-09T22:07:35.435Z,83.99
2022-08-09T22:10:09.173Z,83.77
2022-08-09T22:12:38.016Z,83.56
2022-08-09T22:15:15.717Z,83.70
2022-08-09T22:17:46.270Z,83.55
2022-08-09T22:20:17.063Z,83.63
2022-08-09T22:22:51.388Z,83.65
2022-08-09T22:26:08.309Z,83.97
2022-08-09T22:28:06.671Z,84.17
2022-08-09T22:30:34.777Z,84.03
2022-08-09T22:33:09.391Z,83.89
2022-08-09T22:36:01.343Z,83.95
2022-08-09T22:38:27.574Z,84.19
2022-08-09T22:40:58.203Z,84.12
2022-08-09T22:44:01.414Z,83.91
2022-08-09T22:48:16.724Z,83.73
2022-08-09T22:49:09.632Z,83.59
2022-08-09T22:51:38.583Z,83.12
2022-08-09T22:54:12.781Z,82.88
2022-08-09T22:56:42.199Z,83.15
2022-08-09T22:59:57.430Z,83.10
2022-08-09T23:02:05.493Z,82.96
2022-08-09T23:04:38.346Z,82.69
2022-08-09T23:08:22.592Z,82.55
2022-08-09T23:10:12.671Z,82.73
2022-08-09T23:12:39.854Z,82.97
2022-08-09T23:15:08.041Z,83.41
2022-08-09T23:17:35.959Z,83.69
2022-08-09T23:20:08.054Z,84.20
2022-08-09T23:22:35.853Z,84.12
2022-08-09T23:25:05.458Z,84.15
2022-08-09T23:27:33.099Z,84.26
2022-08-09T23:30:00.528Z,84.07
2022-08-09T23:32:27.780Z,84.03
2022-08-09T23:34:54.917Z,83.90
2022-08-09T23:37:22.866Z,84.19
2022-08-09T23:39:57.577Z,84.03
2022-08-09T23:42:26.837Z,83.95
2022-08-09T23:44:56.724Z,83.61
2022-08-09T23:47:24.991Z,83.59
2022-08-09T23:49:52.413Z,83.31
2022-08-09T23:52:19.654Z,83.22
2022-08-09T23:54:54.088Z,83.04
2022-08-09T23:57:22.051Z,82.83
